createdAt,value
2023-03-05T00:01:39.475Z,45.33
2023-03-05T00:04:08.667Z,43.15
2023-03-05T00:06:35.844Z,41.83
2023-03-05T00:09:03.442Z,43.30
2023-03-05T00:11:31.660Z,38.97
2023-03-05T00:13:59.545Z,43.35
2023-03-05T00:16:27.316Z,40.78
2023-03-05T00:18:55.098Z,41.72
2023-03-05T00:21:24.345Z,42.60
2023-03-05T00:23:52.041Z,44.17
2023-03-05T00:26:19.758Z,40.90
2023-03-05T00:28:51.703Z,46.63
2023-03-05T00:31:23.099Z,40.30
2023-03-05T00:33:54.436Z,43.78
2023-03-05T00:36:21.671Z,36.55
2023-03-05T00:38:48.938Z,40.35
2023-03-05T00:41:16.128Z,44.75
2023-03-05T00:43:43.669Z,36.28
2023-03-05T00:46:10.829Z,38.90
2023-03-05T00:48:38.004Z,41.72
2023-03-05T00:51:05.261Z,40.88
2023-03-05T00:53:32.374Z,45.55
2023-03-05T00:55:59.639Z,38.83
2023-03-05T00:58:26.833Z,37.85
2023-03-05T01:00:53.895Z,47.33
2023-03-05T01:03:21.086Z,46.78
2023-03-05T01:05:48.262Z,43.63
2023-03-05T01:08:15.944Z,49.25
2023-03-05T01:10:43.192Z,44.63
2023-03-05T01:13:10.370Z,42.08
2023-03-05T01:15:37.481Z,48.17
2023-03-05T01:18:04.664Z,46.42
2023-03-05T01:20:31.854Z,44.17
2023-03-05T01:22:59.260Z,45.40
2023-03-05T01:25:26.376Z,43.78
2023-03-05T01:27:53.543Z,50.72
2023-03-05T01:30:20.910Z,47.72
2023-03-05T01:32:48.058Z,42.42
2023-03-05T01:35:20.096Z,46.10
2023-03-05T01:37:47.435Z,43.58
2023-03-05T01:40:19.230Z,43.55
2023-03-05T01:42:50.052Z,44.88
2023-03-05T01:45:19.015Z,45.25
2023-03-05T01:47:46.444Z,45.58
2023-03-05T01:50:21.790Z,47.53
2023-03-05T01:52:52.898Z,40.38
2023-03-05T01:55:24.425Z,45.13
2023-03-05T01:58:04.530Z,44.75
2023-03-05T02:00:33.406Z,41.03
2023-03-05T02:03:04.312Z,47.80
2023-03-05T02:05:33.472Z,49.35
2023-03-05T02:08:01.528Z,44.88
2023-03-05T02:10:30.602Z,42.85
2023-03-05T02:12:59.622Z,42.78
2023-03-05T02:15:26.763Z,43.97
2023-03-05T02:17:53.890Z,45.95
2023-03-05T02:20:22.588Z,47.67
2023-03-05T02:22:49.756Z,47.53
2023-03-05T02:25:21.034Z,45.13
2023-03-05T02:27:54.600Z,47.67
2023-03-05T02:30:21.779Z,55.92
2023-03-05T02:32:49.160Z,45.30
2023-03-05T02:35:16.266Z,48.65
2023-03-05T02:37:43.533Z,44.70
2023-03-05T02:40:11.302Z,50.05
2023-03-05T02:42:38.476Z,47.97
2023-03-05T02:45:06.081Z,47.78
2023-03-05T02:47:33.492Z,51.95
2023-03-05T02:50:00.664Z,51.40
2023-03-05T02:52:28.798Z,46.17
2023-03-05T02:54:55.973Z,43.13
2023-03-05T02:57:23.349Z,52.47
2023-03-05T02:59:50.526Z,54.90
2023-03-05T03:02:17.664Z,49.08
2023-03-05T03:04:45.426Z,46.80
2023-03-05T03:07:15.795Z,47.58
2023-03-05T03:09:43.385Z,48.95
2023-03-05T03:12:11.651Z,51.60
2023-03-05T03:14:41.305Z,47.88
2023-03-05T03:17:15.558Z,48.08
2023-03-05T03:19:42.941Z,46.95
2023-03-05T03:22:10.663Z,48.50
2023-03-05T03:24:38.657Z,50.17
2023-03-05T03:27:05.931Z,47.83
2023-03-05T03:29:33.083Z,48.88
2023-03-05T03:32:00.443Z,46.60
2023-03-05T03:34:27.616Z,54.08
2023-03-05T03:36:55.027Z,43.33
2023-03-05T03:39:22.268Z,44.60
2023-03-05T03:41:50.635Z,51.35
2023-03-05T03:44:18.768Z,39.50
2023-03-05T03:46:46.550Z,42.22
2023-03-05T03:49:21.384Z,48.42
2023-03-05T03:51:49.757Z,43.85
2023-03-05T03:54:17.667Z,39.88
2023-03-05T03:56:45.371Z,45.95
2023-03-05T03:59:13.106Z,43.70
2023-03-05T04:01:40.603Z,50.20
2023-03-05T04:04:07.736Z,41.97
2023-03-05T04:06:35.309Z,43.33
2023-03-05T04:09:02.402Z,40.05
2023-03-05T04:11:29.562Z,44.65
2023-03-05T04:13:56.741Z,45.60
2023-03-05T04:16:24.212Z,45.97
2023-03-05T04:18:51.374Z,44.53
2023-03-05T04:21:18.506Z,45.85
2023-03-05T04:23:45.758Z,46.30
2023-03-05T04:26:12.871Z,44.35
2023-03-05T04:28:40.036Z,43.70
2023-03-05T04:31:07.169Z,43.53
2023-03-05T04:33:34.324Z,46.25
2023-03-05T04:36:01.519Z,44.72
2023-03-05T04:38:28.612Z,46.67
2023-03-05T04:40:55.652Z,43.85
2023-03-05T04:43:22.966Z,41.40
2023-03-05T04:45:50.099Z,43.88
2023-03-05T04:48:17.264Z,40.05
2023-03-05T04:50:44.383Z,45.22
2023-03-05T04:53:11.466Z,44.95
2023-03-05T04:55:38.647Z,40.95
2023-03-05T04:58:05.791Z,45.92
2023-03-05T05:00:32.923Z,48.15
2023-03-05T05:03:00.168Z,46.63
2023-03-05T05:05:28.052Z,38.80
2023-03-05T05:07:59.208Z,47.42
2023-03-05T05:10:26.839Z,44.55
2023-03-05T05:12:54.016Z,43.08
2023-03-05T05:15:21.172Z,51.42
2023-03-05T05:17:48.438Z,44.50
2023-03-05T05:20:16.472Z,47.65
2023-03-05T05:22:43.840Z,48.47
2023-03-05T05:25:11.529Z,47.92
2023-03-05T05:27:40.092Z,45.42
2023-03-05T05:30:07.737Z,45.42
2023-03-05T05:32:35.042Z,43.45
2023-03-05T05:35:02.555Z,42.72
2023-03-05T05:37:30.040Z,39.55
2023-03-05T05:39:57.199Z,39.28
2023-03-05T05:42:25.311Z,48.90
2023-03-05T05:44:52.463Z,41.63
2023-03-05T05:47:19.576Z,45.35
2023-03-05T05:49:46.874Z,40.45
2023-03-05T05:52:14.457Z,44.33
2023-03-05T05:54:41.626Z,47.17
2023-03-05T05:57:08.766Z,43.65
2023-03-05T05:59:37.049Z,46.65
2023-03-05T06:02:04.308Z,41.55
2023-03-05T06:04:31.437Z,43.00
2023-03-05T06:06:59.756Z,41.55
2023-03-05T06:09:27.297Z,41.53
2023-03-05T06:11:54.368Z,50.55
2023-03-05T06:14:21.463Z,46.67
2023-03-05T06:16:48.608Z,44.92
2023-03-05T06:19:16.475Z,50.25
2023-03-05T06:21:43.616Z,48.50
2023-03-05T06:24:11.042Z,43.15
2023-03-05T06:26:38.125Z,48.35
2023-03-05T06:29:05.198Z,51.75
2023-03-05T06:31:32.715Z,46.28
2023-03-05T06:34:03.877Z,40.95
2023-03-05T06:36:31.287Z,45.40
2023-03-05T06:38:59.102Z,45.30
2023-03-05T06:41:27.873Z,47.53
2023-03-05T06:43:55.336Z,45.60
2023-03-05T06:46:26.395Z,45.40
2023-03-05T06:48:55.537Z,48.97
2023-03-05T06:51:24.693Z,43.72
2023-03-05T06:53:52.304Z,51.95
2023-03-05T06:56:19.789Z,54.45
2023-03-05T06:58:47.867Z,51.97
2023-03-05T07:01:15.896Z,43.70
2023-03-05T07:03:43.485Z,49.15
2023-03-05T07:06:12.016Z,40.40
2023-03-05T07:08:39.191Z,40.28
2023-03-05T07:11:13.818Z,37.90
2023-03-05T07:13:41.077Z,41.17
2023-03-05T07:16:10.020Z,41.33
2023-03-05T07:18:37.492Z,44.38
2023-03-05T07:21:05.028Z,42.80
2023-03-05T07:23:32.496Z,40.15
2023-03-05T07:26:03.409Z,40.58
2023-03-05T07:28:30.618Z,43.85
2023-03-05T07:30:59.175Z,47.38
2023-03-05T07:33:27.104Z,40.55
2023-03-05T07:35:54.389Z,42.20
2023-03-05T07:38:21.626Z,41.83
2023-03-05T07:40:48.895Z,44.85
2023-03-05T07:43:16.296Z,45.78
2023-03-05T07:45:44.658Z,42.90
2023-03-05T07:48:20.906Z,48.03
2023-03-05T07:50:48.623Z,39.38
2023-03-05T07:53:16.009Z,46.13
2023-03-05T07:55:46.911Z,51.85
2023-03-05T07:58:14.738Z,41.08
2023-03-05T08:00:41.999Z,44.42
2023-03-05T08:03:09.130Z,40.15
2023-03-05T08:05:39.648Z,44.55
2023-03-05T08:08:07.288Z,48.10
2023-03-05T08:10:35.019Z,40.67
2023-03-05T08:13:02.199Z,43.33
2023-03-05T08:15:30.706Z,43.67
2023-03-05T08:17:58.046Z,53.85
2023-03-05T08:20:25.362Z,44.17
2023-03-05T08:22:52.556Z,44.00
2023-03-05T08:25:19.639Z,44.42
2023-03-05T08:27:47.361Z,41.10
2023-03-05T08:30:19.574Z,42.63
2023-03-05T08:32:46.785Z,48.55
2023-03-05T08:35:13.888Z,40.17
2023-03-05T08:37:41.032Z,42.40
2023-03-05T08:40:08.520Z,44.65
2023-03-05T08:42:35.632Z,46.30
2023-03-05T08:45:02.781Z,45.45
2023-03-05T08:47:29.852Z,46.63
2023-03-05T08:49:57.605Z,47.33
2023-03-05T08:52:27.242Z,49.35
2023-03-05T08:54:54.419Z,51.15
2023-03-05T08:57:21.567Z,43.10
2023-03-05T08:59:48.786Z,44.53
2023-03-05T09:02:15.931Z,41.05
2023-03-05T09:04:43.078Z,49.10
2023-03-05T09:07:10.495Z,45.17
2023-03-05T09:09:37.889Z,42.75
2023-03-05T09:12:05.095Z,42.85
2023-03-05T09:14:32.172Z,38.00
2023-03-05T09:16:59.442Z,48.00
2023-03-05T09:19:27.507Z,41.42
2023-03-05T09:21:56.868Z,38.10
2023-03-05T09:24:24.168Z,43.22
2023-03-05T09:26:51.259Z,49.13
2023-03-05T09:29:18.482Z,42.55
2023-03-05T09:31:45.651Z,40.70
2023-03-05T09:34:12.870Z,37.25
2023-03-05T09:36:40.048Z,41.40
2023-03-05T09:39:07.234Z,38.58
2023-03-05T09:41:52.922Z,40.88
2023-03-05T09:44:23.959Z,47.42
2023-03-05T09:47:14.814Z,37.75
2023-03-05T09:49:57.253Z,39.65
2023-03-05T09:52:28.666Z,35.55
2023-03-05T09:54:56.618Z,38.17
2023-03-05T09:57:25.606Z,38.20
2023-03-05T09:59:55.752Z,35.45
2023-03-05T10:02:31.849Z,40.25
2023-03-05T10:05:04.456Z,40.10
2023-03-05T10:10:00.254Z,39.47
2023-03-05T10:12:33.395Z,32.88
2023-03-05T10:15:03.126Z,38.88
2023-03-05T10:17:30.210Z,43.38
2023-03-05T10:20:14.473Z,40.53
2023-03-05T10:23:04.907Z,46.33
2023-03-05T10:25:47.532Z,43.88
2023-03-05T10:28:20.185Z,41.50
2023-03-05T10:30:50.507Z,52.53
2023-03-05T10:33:23.402Z,39.83
2023-03-05T10:36:11.144Z,35.45
2023-03-05T10:38:38.230Z,49.15
2023-03-05T10:41:12.617Z,44.15
2023-03-05T10:43:53.107Z,33.95
2023-03-05T10:46:22.112Z,38.17
2023-03-05T10:48:58.647Z,38.33
2023-03-05T10:51:34.368Z,33.08
2023-03-05T10:54:25.400Z,35.08
2023-03-05T10:57:03.300Z,43.50
2023-03-05T10:59:30.449Z,37.88
2023-03-05T11:02:05.567Z,40.58
2023-03-05T11:04:36.050Z,47.47
2023-03-05T11:07:15.154Z,45.58
2023-03-05T11:10:02.018Z,41.05
2023-03-05T11:12:30.131Z,45.13
2023-03-05T11:15:05.687Z,38.90
2023-03-05T11:17:38.362Z,41.80
2023-03-05T11:20:17.529Z,37.65
2023-03-05T11:23:01.932Z,36.90
2023-03-05T11:25:29.073Z,38.40
2023-03-05T11:27:57.230Z,45.92
2023-03-05T11:30:35.145Z,35.40
2023-03-05T11:33:10.364Z,39.00
2023-03-05T11:35:39.561Z,37.55
2023-03-05T11:38:08.300Z,42.03
2023-03-05T11:40:35.892Z,44.33
2023-03-05T11:43:04.141Z,36.67
2023-03-05T11:45:33.092Z,36.03
2023-03-05T11:48:08.846Z,38.08
2023-03-05T11:50:36.523Z,38.65
2023-03-05T11:53:14.288Z,38.15
2023-03-05T11:55:41.533Z,40.35
2023-03-05T11:58:11.715Z,42.15
2023-03-05T12:00:42.285Z,39.25
2023-03-05T12:03:12.973Z,37.30
2023-03-05T12:05:42.448Z,35.03
2023-03-05T12:08:12.665Z,41.45
2023-03-05T12:10:39.751Z,39.92
2023-03-05T12:13:10.639Z,39.95
2023-03-05T12:15:37.770Z,37.47
2023-03-05T12:18:19.626Z,41.33
2023-03-05T12:20:46.729Z,36.90
2023-03-05T12:23:18.637Z,39.78
2023-03-05T12:25:52.680Z,39.78
2023-03-05T12:28:35.284Z,42.75
2023-03-05T12:31:06.302Z,37.95
2023-03-05T12:33:33.645Z,32.90
2023-03-05T12:36:19.696Z,39.03
2023-03-05T12:38:48.200Z,36.05
2023-03-05T12:41:21.492Z,38.17
2023-03-05T12:44:06.587Z,35.42
2023-03-05T12:46:40.354Z,37.05
2023-03-05T12:49:20.255Z,35.80
2023-03-05T12:51:48.235Z,41.45
2023-03-05T12:54:27.738Z,37.03
2023-03-05T12:56:56.198Z,32.78
2023-03-05T12:59:25.126Z,34.50
2023-03-05T13:01:56.868Z,34.97
2023-03-05T13:04:26.205Z,36.17
2023-03-05T13:07:04.241Z,30.40
2023-03-05T13:09:34.938Z,32.60
2023-03-05T13:12:03.020Z,50.33
2023-03-05T13:14:43.700Z,32.85
2023-03-05T13:17:31.089Z,33.45
2023-03-05T13:19:59.125Z,36.10
2023-03-05T13:22:26.303Z,30.33
2023-03-05T13:25:12.075Z,29.63
2023-03-05T13:27:39.240Z,29.10
2023-03-05T13:30:06.698Z,44.53
2023-03-05T13:32:34.070Z,31.20
2023-03-05T13:35:02.057Z,31.50
2023-03-05T13:37:32.163Z,31.52
2023-03-05T13:40:00.593Z,28.95
2023-03-05T13:42:34.736Z,30.30
2023-03-05T13:45:06.363Z,29.05
2023-03-05T13:47:35.246Z,27.33
2023-03-05T13:50:05.681Z,32.58
2023-03-05T13:52:33.944Z,34.60
2023-03-05T13:55:01.648Z,34.30
2023-03-05T13:57:37.704Z,31.67
2023-03-05T14:00:06.337Z,32.75
2023-03-05T14:02:33.684Z,32.80
2023-03-05T14:05:00.978Z,32.35
2023-03-05T14:07:38.741Z,36.78
2023-03-05T14:10:24.836Z,30.42
2023-03-05T14:12:52.170Z,36.95
2023-03-05T14:15:22.211Z,35.40
2023-03-05T14:17:49.492Z,37.22
2023-03-05T14:20:21.478Z,33.83
2023-03-05T14:22:49.123Z,36.85
2023-03-05T14:25:25.503Z,29.10
2023-03-05T14:27:52.720Z,34.42
2023-03-05T14:30:23.606Z,33.30
2023-03-05T14:32:51.750Z,36.00
2023-03-05T14:35:20.121Z,37.58
2023-03-05T14:37:49.219Z,33.40
2023-03-05T14:40:16.306Z,35.65
2023-03-05T14:42:52.592Z,35.58
2023-03-05T14:45:24.198Z,39.08
2023-03-05T14:47:52.346Z,37.58
2023-03-05T14:50:30.210Z,31.73
2023-03-05T14:52:58.465Z,32.13
2023-03-05T14:55:26.857Z,34.05
2023-03-05T14:57:55.804Z,38.35
2023-03-05T15:00:24.251Z,32.55
2023-03-05T15:02:51.455Z,33.58
2023-03-05T15:05:19.105Z,34.33
2023-03-05T15:07:46.447Z,31.48
2023-03-05T15:10:17.958Z,37.72
2023-03-05T15:12:45.170Z,38.45
2023-03-05T15:15:14.510Z,34.67
2023-03-05T15:17:43.169Z,31.52
2023-03-05T15:20:14.794Z,29.15
2023-03-05T15:22:42.035Z,32.33
2023-03-05T15:25:09.644Z,30.33
2023-03-05T15:27:36.745Z,45.67
2023-03-05T15:30:04.572Z,36.47
2023-03-05T15:32:31.795Z,29.90
2023-03-05T15:34:59.554Z,29.60
2023-03-05T15:37:26.827Z,31.35
2023-03-05T15:39:54.027Z,29.55
2023-03-05T15:42:21.156Z,29.80
2023-03-05T15:44:48.474Z,32.92
2023-03-05T15:47:15.665Z,34.67
2023-03-05T15:49:42.761Z,36.50
2023-03-05T15:52:09.933Z,33.70
2023-03-05T15:54:37.403Z,30.65
2023-03-05T15:57:08.535Z,35.53
2023-03-05T15:59:35.657Z,30.70
2023-03-05T16:02:02.798Z,30.90
2023-03-05T16:04:30.017Z,28.15
2023-03-05T16:06:58.999Z,32.50
2023-03-05T16:09:27.360Z,31.90
2023-03-05T16:11:54.460Z,27.88
2023-03-05T16:14:23.430Z,32.40
2023-03-05T16:16:51.464Z,34.47
2023-03-05T16:19:19.229Z,31.08
2023-03-05T16:21:46.508Z,40.67
2023-03-05T16:24:13.679Z,41.25
2023-03-05T16:26:41.438Z,30.52
2023-03-05T16:29:08.596Z,28.70
2023-03-05T16:31:38.188Z,27.27
2023-03-05T16:34:05.387Z,28.05
2023-03-05T16:36:35.341Z,28.88
2023-03-05T16:39:03.504Z,25.42
2023-03-05T16:41:30.896Z,21.83
2023-03-05T16:43:58.063Z,24.48
2023-03-05T16:46:26.537Z,21.85
2023-03-05T16:48:53.672Z,25.75
2023-03-05T16:51:21.074Z,22.52
2023-03-05T16:53:48.235Z,29.02
2023-03-05T16:56:15.814Z,24.80
2023-03-05T16:58:42.932Z,29.02
2023-03-05T17:01:14.395Z,22.70
2023-03-05T17:03:43.441Z,26.83
2023-03-05T17:06:15.452Z,29.58
2023-03-05T17:08:43.238Z,29.90
2023-03-05T17:11:11.185Z,27.67
2023-03-05T17:13:38.997Z,27.52
2023-03-05T17:16:06.458Z,27.20
2023-03-05T17:18:33.659Z,26.65
2023-03-05T17:21:01.443Z,24.70
2023-03-05T17:23:28.736Z,24.25
2023-03-05T17:25:55.890Z,25.55
2023-03-05T17:28:23.017Z,22.73
2023-03-05T17:30:50.152Z,27.45
2023-03-05T17:33:17.303Z,26.65
2023-03-05T17:35:47.137Z,23.77
2023-03-05T17:38:14.395Z,24.67
2023-03-05T17:40:41.714Z,24.75
2023-03-05T17:43:08.881Z,26.38
2023-03-05T17:45:36.127Z,24.77
2023-03-05T17:48:03.799Z,25.77
2023-03-05T17:50:30.911Z,27.92
2023-03-05T17:52:58.084Z,28.13
2023-03-05T17:55:25.726Z,23.65
2023-03-05T17:57:53.260Z,27.58
2023-03-05T18:00:22.423Z,26.42
2023-03-05T18:02:49.668Z,33.30
2023-03-05T18:05:17.484Z,29.20
2023-03-05T18:07:44.675Z,36.20
2023-03-05T18:10:12.381Z,41.25
2023-03-05T18:12:39.723Z,38.58
2023-03-05T18:15:07.940Z,31.15
2023-03-05T18:17:35.106Z,33.15
2023-03-05T18:20:04.009Z,29.27
2023-03-05T18:22:31.374Z,32.30
2023-03-05T18:24:58.441Z,23.10
2023-03-05T18:27:25.673Z,30.83
2023-03-05T18:29:54.167Z,29.20
2023-03-05T18:32:22.528Z,29.70
2023-03-05T18:34:50.724Z,30.33
2023-03-05T18:37:17.864Z,29.63
2023-03-05T18:39:44.954Z,28.20
2023-03-05T18:42:13.335Z,24.77
2023-03-05T18:44:40.818Z,27.77
2023-03-05T18:47:08.017Z,27.65
2023-03-05T18:49:35.166Z,28.60
2023-03-05T18:52:03.336Z,23.25
2023-03-05T18:54:32.472Z,28.20
2023-03-05T18:56:59.632Z,26.13
2023-03-05T18:59:26.762Z,27.45
2023-03-05T19:01:57.266Z,28.52
2023-03-05T19:04:25.288Z,27.17
2023-03-05T19:06:53.617Z,42.10
2023-03-05T19:09:31.048Z,35.97
2023-03-05T19:11:58.146Z,41.58
2023-03-05T19:14:25.288Z,40.90
2023-03-05T19:16:52.413Z,35.63
2023-03-05T19:19:22.470Z,35.55
2023-03-05T19:21:50.847Z,30.40
2023-03-05T19:24:18.298Z,23.33
2023-03-05T19:26:45.874Z,22.85
2023-03-05T19:29:13.132Z,24.55
2023-03-05T19:31:40.498Z,23.58
2023-03-05T19:34:07.756Z,25.52
2023-03-05T19:36:35.354Z,41.97
2023-03-05T19:39:05.855Z,40.55
2023-03-05T19:41:33.173Z,47.80
2023-03-05T19:44:00.266Z,46.53
2023-03-05T19:46:27.738Z,39.97
2023-03-05T19:48:54.971Z,36.10
2023-03-05T19:51:23.946Z,30.08
2023-03-05T19:53:51.440Z,31.05
2023-03-05T19:56:18.727Z,36.53
2023-03-05T19:58:47.257Z,33.10
2023-03-05T20:01:15.887Z,31.63
2023-03-05T20:03:47.073Z,28.98
2023-03-05T20:06:14.683Z,32.35
2023-03-05T20:08:42.079Z,28.25
2023-03-05T20:11:10.431Z,31.27
2023-03-05T20:13:37.714Z,28.40
2023-03-05T20:16:04.996Z,34.28
2023-03-05T20:18:32.124Z,32.78
2023-03-05T20:21:01.992Z,58.50
2023-03-05T20:23:29.503Z,55.08
2023-03-05T20:25:57.284Z,40.17
2023-03-05T20:28:27.411Z,40.20
2023-03-05T20:30:58.727Z,36.00
2023-03-05T20:33:26.414Z,33.78
2023-03-05T20:35:54.343Z,32.00
2023-03-05T20:38:24.892Z,33.30
2023-03-05T20:40:53.854Z,29.67
2023-03-05T20:43:21.524Z,29.40
2023-03-05T20:45:48.920Z,30.50
2023-03-05T20:48:16.072Z,33.25
2023-03-05T20:50:43.327Z,34.92
2023-03-05T20:53:10.470Z,38.63
2023-03-05T20:55:37.559Z,47.25
2023-03-05T20:58:04.608Z,42.63
2023-03-05T21:00:31.700Z,44.80
2023-03-05T21:02:59.010Z,41.30
2023-03-05T21:05:27.678Z,43.30
2023-03-05T21:07:55.442Z,39.78
2023-03-05T21:10:22.771Z,42.45
2023-03-05T21:12:50.543Z,41.25
2023-03-05T21:15:19.373Z,37.88
2023-03-05T21:17:47.146Z,33.38
2023-03-05T21:20:15.377Z,36.38
2023-03-05T21:22:42.461Z,34.35
2023-03-05T21:25:17.362Z,32.67
2023-03-05T21:27:44.731Z,33.22
2023-03-05T21:30:12.331Z,30.92
2023-03-05T21:32:39.547Z,33.80
2023-03-05T21:35:06.968Z,34.83
2023-03-05T21:37:36.795Z,33.03
2023-03-05T21:40:04.590Z,33.53
2023-03-05T21:42:32.514Z,35.80
2023-03-05T21:44:59.616Z,34.15
2023-03-05T21:47:26.716Z,40.03
2023-03-05T21:49:53.866Z,37.05
2023-03-05T21:52:22.327Z,31.77
2023-03-05T21:54:49.529Z,39.83
2023-03-05T21:57:16.660Z,46.75
2023-03-05T21:59:43.833Z,39.30
2023-03-05T22:02:15.193Z,39.30
2023-03-05T22:04:42.358Z,42.22
2023-03-05T22:07:09.517Z,37.80
2023-03-05T22:09:36.749Z,39.78
2023-03-05T22:12:05.253Z,46.47
2023-03-05T22:14:32.348Z,47.10
2023-03-05T22:17:03.238Z,53.38
2023-03-05T22:19:30.312Z,47.15
2023-03-05T22:21:57.663Z,54.95
2023-03-05T22:24:25.526Z,56.17
2023-03-05T22:26:52.750Z,73.28
2023-03-05T22:29:19.865Z,62.10
2023-03-05T22:31:46.975Z,56.42
2023-03-05T22:34:14.048Z,51.47
2023-03-05T22:36:41.213Z,43.67
2023-03-05T22:39:08.325Z,42.40
2023-03-05T22:41:35.440Z,40.80
2023-03-05T22:44:02.577Z,38.30
2023-03-05T22:46:29.704Z,55.20
2023-03-05T22:48:56.891Z,39.10
2023-03-05T22:51:24.064Z,62.50
2023-03-05T22:53:51.458Z,39.33
2023-03-05T22:56:19.673Z,43.55
2023-03-05T22:58:46.994Z,58.25
2023-03-05T23:01:15.566Z,66.82
2023-03-05T23:03:43.562Z,36.58
2023-03-05T23:06:11.018Z,34.08
2023-03-05T23:08:38.114Z,42.03
2023-03-05T23:11:09.563Z,34.70
2023-03-05T23:13:36.722Z,36.75
2023-03-05T23:16:03.979Z,61.15
2023-03-05T23:18:31.238Z,36.08
2023-03-05T23:20:58.348Z,36.05
2023-03-05T23:23:25.522Z,37.92
2023-03-05T23:25:53.033Z,37.65
2023-03-05T23:28:20.458Z,33.00
2023-03-05T23:30:47.567Z,36.47
2023-03-05T23:33:16.034Z,46.05
2023-03-05T23:35:44.402Z,38.88
2023-03-05T23:38:14.010Z,48.00
2023-03-05T23:40:51.654Z,49.50
2023-03-05T23:43:19.561Z,36.38
2023-03-05T23:45:51.025Z,34.33
2023-03-05T23:48:18.537Z,34.67
2023-03-05T23:50:50.316Z,33.42
2023-03-05T23:53:21.980Z,28.90
2023-03-05T23:55:49.455Z,34.80
2023-03-05T23:58:17.136Z,28.38
